createdAt,value
2023-05-14T00:02:33.830Z,98062.00
2023-05-14T00:05:10.180Z,98062.00
2023-05-14T00:07:46.044Z,98058.00
2023-05-14T00:10:22.225Z,98062.00
2023-05-14T00:12:58.222Z,98054.00
2023-05-14T00:15:34.574Z,98048.00
2023-05-14T00:18:12.217Z,98048.00
2023-05-14T00:20:48.123Z,98052.00
2023-05-14T00:23:24.286Z,98046.00
2023-05-14T00:26:00.149Z,98043.00
2023-05-14T00:28:36.025Z,98048.00
2023-05-14T00:31:11.876Z,98034.00
2023-05-14T00:33:47.746Z,98038.00
2023-05-14T00:36:23.588Z,98044.00
2023-05-14T00:38:59.433Z,98046.00
2023-05-14T00:41:35.688Z,98037.00
2023-05-14T00:44:11.608Z,98025.00
2023-05-14T00:46:47.804Z,98038.00
2023-05-14T00:49:26.561Z,98022.00
2023-05-14T00:52:03.522Z,98022.00
2023-05-14T00:54:40.205Z,98024.00
2023-05-14T00:57:16.215Z,98025.00
2023-05-14T00:59:52.105Z,98017.00
2023-05-14T01:02:27.973Z,98022.00
2023-05-14T01:05:04.311Z,98013.00
2023-05-14T01:08:18.089Z,98021.00
2023-05-14T01:11:24.935Z,98017.00
2023-05-14T01:14:21.542Z,98014.00
2023-05-14T01:16:59.807Z,98013.00
2023-05-14T01:19:40.432Z,98022.00
2023-05-14T01:22:16.333Z,98016.00
2023-05-14T01:24:52.181Z,98009.00
2023-05-14T01:27:59.431Z,98012.00
2023-05-14T01:31:03.342Z,98017.00
2023-05-14T01:33:43.019Z,98002.00
2023-05-14T01:36:19.198Z,98009.00
2023-05-14T01:38:56.515Z,97999.00
2023-05-14T01:41:33.578Z,98008.00
2023-05-14T01:44:10.532Z,98005.00
2023-05-14T01:46:46.752Z,98005.00
2023-05-14T01:49:22.747Z,97998.00
2023-05-14T01:51:58.673Z,97990.00
2023-05-14T01:54:34.555Z,97998.00
2023-05-14T01:57:10.394Z,97993.00
2023-05-14T01:59:46.286Z,98001.00
2023-05-14T02:02:22.160Z,98001.00
2023-05-14T02:04:58.049Z,98002.00
2023-05-14T02:07:33.992Z,98002.00
2023-05-14T02:10:10.593Z,98012.00
2023-05-14T02:12:46.489Z,98007.00
2023-05-14T02:15:22.343Z,98008.00
2023-05-14T02:17:58.419Z,98003.00
2023-05-14T02:20:34.409Z,97996.00
2023-05-14T02:23:10.270Z,98002.00
2023-05-14T02:25:46.196Z,98007.00
2023-05-14T02:28:22.026Z,98001.00
2023-05-14T02:31:01.393Z,97996.00
2023-05-14T02:33:37.409Z,98005.00
2023-05-14T02:36:14.737Z,97997.00
2023-05-14T02:38:51.003Z,98004.00
2023-05-14T02:41:27.431Z,98005.00
2023-05-14T02:44:03.433Z,98005.00
2023-05-14T02:46:40.157Z,98003.00
2023-05-14T02:49:16.094Z,98009.00
2023-05-14T02:51:54.247Z,98007.00
2023-05-14T02:54:30.220Z,98011.00
2023-05-14T02:57:06.089Z,98017.00
2023-05-14T02:59:41.931Z,98010.00
2023-05-14T03:02:18.413Z,98010.00
2023-05-14T03:04:54.743Z,98017.00
2023-05-14T03:07:30.659Z,98014.00
2023-05-14T03:10:07.148Z,98012.00
2023-05-14T03:12:43.124Z,98009.00
2023-05-14T03:15:19.195Z,98011.00
2023-05-14T03:17:55.202Z,98015.00
2023-05-14T03:20:31.088Z,98008.00
2023-05-14T03:23:07.027Z,97999.00
2023-05-14T03:25:42.916Z,98007.00
2023-05-14T03:28:18.844Z,98004.00
2023-05-14T03:30:54.880Z,97999.00
2023-05-14T03:33:31.124Z,97996.00
2023-05-14T03:36:07.220Z,97992.00
2023-05-14T03:38:43.074Z,98008.00
2023-05-14T03:41:19.947Z,98013.00
2023-05-14T03:43:55.986Z,98007.00
2023-05-14T03:46:31.859Z,98003.00
2023-05-14T03:49:08.533Z,98007.00
2023-05-14T03:51:44.471Z,97998.00
2023-05-14T03:54:20.396Z,97996.00
2023-05-14T03:56:56.323Z,97996.00
2023-05-14T03:59:32.204Z,97999.00
2023-05-14T04:02:08.065Z,97994.00
2023-05-14T04:04:43.992Z,97990.00
2023-05-14T04:07:19.865Z,97991.00
2023-05-14T04:09:56.041Z,97992.00
2023-05-14T04:12:31.915Z,97994.00
2023-05-14T04:15:09.077Z,97995.00
2023-05-14T04:17:44.996Z,97993.00
2023-05-14T04:20:22.101Z,98001.00
2023-05-14T04:22:59.402Z,98002.00
2023-05-14T04:25:35.265Z,97999.00
2023-05-14T04:28:11.113Z,98005.00
2023-05-14T04:30:48.431Z,97996.00
2023-05-14T04:33:24.279Z,97996.00
2023-05-14T04:36:00.245Z,97992.00
2023-05-14T04:38:36.075Z,98008.00
2023-05-14T04:41:11.960Z,97999.00
2023-05-14T04:43:50.708Z,97994.00
2023-05-14T04:46:26.609Z,97998.00
2023-05-14T04:49:02.493Z,97996.00
2023-05-14T04:51:38.392Z,97989.00
2023-05-14T04:54:14.589Z,97993.00
2023-05-14T04:56:50.822Z,98003.00
2023-05-14T04:59:26.760Z,98013.00
2023-05-14T05:02:02.988Z,98010.00
2023-05-14T05:04:39.374Z,97998.00
2023-05-14T05:07:15.267Z,98002.00
2023-05-14T05:09:51.189Z,98001.00
2023-05-14T05:12:29.930Z,97995.00
2023-05-14T05:15:07.045Z,97989.00
2023-05-14T05:17:43.084Z,97998.00
2023-05-14T05:20:19.241Z,97991.00
2023-05-14T05:22:55.119Z,98008.00
2023-05-14T05:25:31.090Z,98007.00
2023-05-14T05:28:07.108Z,98004.00
2023-05-14T05:30:45.078Z,98002.00
2023-05-14T05:33:21.188Z,97995.00
2023-05-14T05:35:57.129Z,97999.00
2023-05-14T05:38:32.978Z,98005.00
2023-05-14T05:41:08.809Z,97996.00
2023-05-14T05:43:44.719Z,97994.00
2023-05-14T05:46:20.638Z,98001.00
2023-05-14T05:48:56.607Z,98000.00
2023-05-14T05:51:33.125Z,97998.00
2023-05-14T05:54:09.156Z,98003.00
2023-05-14T05:56:45.077Z,97999.00
2023-05-14T05:59:20.987Z,97998.00
2023-05-14T06:01:56.987Z,97998.00
2023-05-14T06:04:32.879Z,97994.00
2023-05-14T06:07:08.792Z,97999.00
2023-05-14T06:09:44.682Z,97995.00
2023-05-14T06:12:21.694Z,98003.00
2023-05-14T06:14:57.884Z,97998.00
2023-05-14T06:17:33.838Z,98002.00
2023-05-14T06:20:10.316Z,98008.00
2023-05-14T06:22:46.171Z,97997.00
2023-05-14T06:25:24.140Z,97995.00
2023-05-14T06:28:00.534Z,98004.00
2023-05-14T06:30:36.411Z,98006.00
2023-05-14T06:33:13.390Z,98001.00
2023-05-14T06:35:49.300Z,98005.00
2023-05-14T06:38:25.650Z,98001.00
2023-05-14T06:41:01.780Z,97999.00
2023-05-14T06:43:37.716Z,98005.00
2023-05-14T06:46:13.607Z,98004.00
2023-05-14T06:48:49.590Z,98003.00
2023-05-14T06:51:25.531Z,97998.00
2023-05-14T06:54:01.576Z,97992.00
2023-05-14T06:56:37.546Z,97995.00
2023-05-14T06:59:13.483Z,97986.00
2023-05-14T07:01:49.466Z,97986.00
2023-05-14T07:04:25.381Z,97992.00
2023-05-14T07:07:01.325Z,97995.00
2023-05-14T07:09:37.200Z,97995.00
2023-05-14T07:12:13.278Z,97998.00
2023-05-14T07:14:49.281Z,98001.00
2023-05-14T07:17:25.352Z,98005.00
2023-05-14T07:20:01.347Z,98006.00
2023-05-14T07:22:37.343Z,98005.00
2023-05-14T07:25:13.432Z,97999.00
2023-05-14T07:27:49.313Z,97984.00
2023-05-14T07:30:25.489Z,97989.00
2023-05-14T07:33:01.949Z,97987.00
2023-05-14T07:35:37.888Z,97984.00
2023-05-14T07:38:13.842Z,97986.00
2023-05-14T07:40:49.725Z,97983.00
2023-05-14T07:43:26.412Z,97987.00
2023-05-14T07:46:02.342Z,97979.00
2023-05-14T07:48:38.384Z,97972.00
2023-05-14T07:51:14.388Z,97968.00
2023-05-14T07:53:50.324Z,97976.00
2023-05-14T07:56:26.406Z,97973.00
2023-05-14T07:59:02.247Z,97971.00
2023-05-14T08:01:39.446Z,97972.00
2023-05-14T08:04:16.216Z,97971.00
2023-05-14T08:06:52.244Z,97963.00
2023-05-14T08:09:28.095Z,97968.00
2023-05-14T08:12:04.419Z,97969.00
2023-05-14T08:14:40.355Z,97962.00
2023-05-14T08:17:16.528Z,97971.00
2023-05-14T08:19:53.205Z,97973.00
2023-05-14T08:22:29.202Z,97974.00
2023-05-14T08:25:06.455Z,97967.00
2023-05-14T08:27:42.324Z,97967.00
2023-05-14T08:30:18.254Z,97964.00
2023-05-14T08:32:54.161Z,97959.00
2023-05-14T08:35:30.047Z,97952.00
2023-05-14T08:38:05.983Z,97949.00
2023-05-14T08:40:44.223Z,97956.00
2023-05-14T08:43:25.401Z,97958.00
2023-05-14T08:46:05.063Z,97948.00
2023-05-14T08:48:43.191Z,97953.00
2023-05-14T08:51:19.869Z,97952.00
2023-05-14T08:54:02.522Z,97943.00
2023-05-14T08:56:40.607Z,97954.00
2023-05-14T08:59:16.475Z,97952.00
2023-05-14T09:01:54.778Z,97953.00
2023-05-14T09:04:32.448Z,97951.00
2023-05-14T09:07:09.120Z,97950.00
2023-05-14T09:09:45.885Z,97957.00
2023-05-14T09:12:22.475Z,97960.00
2023-05-14T09:14:58.429Z,97950.00
2023-05-14T09:17:35.036Z,97950.00
2023-05-14T09:20:13.277Z,97939.00
2023-05-14T09:22:54.354Z,97942.00
2023-05-14T09:25:33.558Z,97945.00
2023-05-14T09:28:09.726Z,97930.00
2023-05-14T09:30:52.210Z,97934.00
2023-05-14T09:33:29.250Z,97927.00
2023-05-14T09:36:05.625Z,97926.00
2023-05-14T09:38:41.655Z,97925.00
2023-05-14T09:41:17.534Z,97930.00
2023-05-14T09:43:53.834Z,97926.00
2023-05-14T09:46:31.429Z,97924.00
2023-05-14T09:49:07.296Z,97925.00
2023-05-14T09:51:43.357Z,97917.00
2023-05-14T09:54:23.973Z,97920.00
2023-05-14T09:56:59.893Z,97913.00
2023-05-14T09:59:35.836Z,97918.00
2023-05-14T10:02:25.880Z,97912.00
2023-05-14T10:05:04.980Z,97912.00
2023-05-14T10:07:46.742Z,97906.00
2023-05-14T10:10:27.282Z,97912.00
2023-05-14T10:13:06.504Z,97912.00
2023-05-14T10:15:46.360Z,97903.00
2023-05-14T10:18:24.330Z,97906.00
2023-05-14T10:21:05.722Z,97904.00
2023-05-14T10:23:42.895Z,97920.00
2023-05-14T10:26:18.985Z,97910.00
2023-05-14T10:28:55.942Z,97912.00
2023-05-14T10:31:56.339Z,97903.00
2023-05-14T10:34:40.634Z,97907.00
2023-05-14T10:37:26.014Z,97901.00
2023-05-14T10:40:06.474Z,97901.00
2023-05-14T10:42:43.890Z,97904.00
2023-05-14T10:45:19.945Z,97900.00
2023-05-14T10:47:56.183Z,97896.00
2023-05-14T10:50:32.114Z,97905.00
2023-05-14T10:53:13.492Z,97896.00
2023-05-14T10:55:49.738Z,97896.00
2023-05-14T10:58:25.921Z,97886.00
2023-05-14T11:01:02.183Z,97890.00
2023-05-14T11:03:43.212Z,97883.00
2023-05-14T11:06:20.729Z,97886.00
2023-05-14T11:08:57.562Z,97880.00
2023-05-14T11:11:33.557Z,97872.00
2023-05-14T11:14:10.462Z,97875.00
2023-05-14T11:16:47.931Z,97868.00
2023-05-14T11:19:23.889Z,97866.00
2023-05-14T11:22:01.349Z,97871.00
2023-05-14T11:24:37.584Z,97865.00
2023-05-14T11:27:15.381Z,97861.00
2023-05-14T11:29:53.477Z,97866.00
2023-05-14T11:32:29.671Z,97855.00
2023-05-14T11:35:06.904Z,97850.00
2023-05-14T11:37:44.195Z,97852.00
2023-05-14T11:40:20.498Z,97856.00
2023-05-14T11:42:56.617Z,97847.00
2023-05-14T11:45:33.256Z,97847.00
2023-05-14T11:48:14.945Z,97851.00
2023-05-14T11:50:52.699Z,97841.00
2023-05-14T11:53:31.056Z,97837.00
2023-05-14T11:56:09.531Z,97852.00
2023-05-14T11:58:49.795Z,97844.00
2023-05-14T12:01:25.823Z,97852.00
2023-05-14T12:04:01.888Z,97845.00
2023-05-14T12:06:39.858Z,97840.00
2023-05-14T12:09:19.198Z,97841.00
2023-05-14T12:11:55.128Z,97835.00
2023-05-14T12:14:31.409Z,97837.00
2023-05-14T12:17:17.103Z,97835.00
2023-05-14T12:19:53.768Z,97830.00
2023-05-14T12:22:30.046Z,97825.00
2023-05-14T12:25:13.412Z,97826.00
2023-05-14T12:27:49.437Z,97826.00
2023-05-14T12:30:25.330Z,97832.00
2023-05-14T12:33:01.348Z,97835.00
2023-05-14T12:35:37.454Z,97823.00
2023-05-14T12:38:13.373Z,97819.00
2023-05-14T12:40:49.253Z,97812.00
2023-05-14T12:43:29.913Z,97813.00
2023-05-14T12:46:05.968Z,97813.00
2023-05-14T12:48:41.951Z,97809.00
2023-05-14T12:51:17.859Z,97807.00
2023-05-14T12:53:54.232Z,97799.00
2023-05-14T12:56:31.550Z,97796.00
2023-05-14T12:59:07.504Z,97786.00
2023-05-14T13:01:43.473Z,97782.00
2023-05-14T13:04:19.459Z,97774.00
2023-05-14T13:06:55.409Z,97773.00
2023-05-14T13:09:31.262Z,97782.00
2023-05-14T13:12:07.749Z,97776.00
2023-05-14T13:14:43.633Z,97780.00
2023-05-14T13:17:19.574Z,97777.00
2023-05-14T13:19:55.488Z,97778.00
2023-05-14T13:22:31.319Z,97777.00
2023-05-14T13:25:08.092Z,97776.00
2023-05-14T13:27:43.962Z,97767.00
2023-05-14T13:30:21.022Z,97761.00
2023-05-14T13:32:56.967Z,97762.00
2023-05-14T13:35:34.684Z,97766.00
2023-05-14T13:38:10.681Z,97762.00
2023-05-14T13:40:46.625Z,97753.00
2023-05-14T13:43:23.168Z,97756.00
2023-05-14T13:45:59.731Z,97757.00
2023-05-14T13:48:37.125Z,97754.00
2023-05-14T13:51:14.294Z,97746.00
2023-05-14T13:53:50.925Z,97744.00
2023-05-14T13:56:28.514Z,97735.00
2023-05-14T13:59:04.984Z,97730.00
2023-05-14T14:01:43.286Z,97726.00
2023-05-14T14:04:20.116Z,97717.00
2023-05-14T14:06:56.394Z,97724.00
2023-05-14T14:09:36.706Z,97715.00
2023-05-14T14:12:12.715Z,97711.00
2023-05-14T14:14:48.986Z,97711.00
2023-05-14T14:17:25.069Z,97700.00
2023-05-14T14:20:01.012Z,97704.00
2023-05-14T14:22:37.335Z,97710.00
2023-05-14T14:25:13.307Z,97704.00
2023-05-14T14:27:49.405Z,97698.00
2023-05-14T14:30:25.578Z,97697.00
2023-05-14T14:33:01.573Z,97701.00
2023-05-14T14:35:37.708Z,97705.00
2023-05-14T14:38:14.972Z,97705.00
2023-05-14T14:40:51.571Z,97705.00
2023-05-14T14:43:28.287Z,97711.00
2023-05-14T14:46:06.791Z,97699.00
2023-05-14T14:48:42.660Z,97695.00
2023-05-14T14:51:18.576Z,97700.00
2023-05-14T14:53:54.564Z,97702.00
2023-05-14T14:56:33.283Z,97697.00
2023-05-14T14:59:09.194Z,97688.00
2023-05-14T15:01:45.345Z,97691.00
2023-05-14T15:04:21.585Z,97685.00
2023-05-14T15:06:57.453Z,97692.00
2023-05-14T15:09:33.302Z,97699.00
2023-05-14T15:12:10.733Z,97702.00
2023-05-14T15:14:46.700Z,97703.00
2023-05-14T15:17:22.819Z,97699.00
2023-05-14T15:19:59.387Z,97699.00
2023-05-14T15:22:35.432Z,97693.00
2023-05-14T15:25:11.436Z,97706.00
2023-05-14T15:27:47.934Z,97706.00
2023-05-14T15:30:23.897Z,97715.00
2023-05-14T15:32:59.975Z,97702.00
2023-05-14T15:35:36.628Z,97698.00
2023-05-14T15:38:12.802Z,97700.00
2023-05-14T15:40:50.772Z,97701.00
2023-05-14T15:43:26.804Z,97697.00
2023-05-14T15:46:02.737Z,97699.00
2023-05-14T15:48:38.701Z,97696.00
2023-05-14T15:51:16.168Z,97690.00
2023-05-14T15:53:54.122Z,97694.00
2023-05-14T15:56:30.880Z,97691.00
2023-05-14T15:59:07.717Z,97696.00
2023-05-14T16:01:44.402Z,97690.00
2023-05-14T16:04:20.391Z,97691.00
2023-05-14T16:07:07.994Z,97695.00
2023-05-14T16:09:45.358Z,97693.00
2023-05-14T16:12:21.269Z,97694.00
2023-05-14T16:14:57.658Z,97694.00
2023-05-14T16:17:34.367Z,97691.00
2023-05-14T16:20:11.491Z,97696.00
2023-05-14T16:22:47.403Z,97696.00
2023-05-14T16:25:23.335Z,97697.00
2023-05-14T16:27:59.216Z,97693.00
2023-05-14T16:30:35.253Z,97691.00
2023-05-14T16:33:11.847Z,97692.00
2023-05-14T16:35:49.671Z,97691.00
2023-05-14T16:38:25.625Z,97696.00
2023-05-14T16:41:01.849Z,97689.00
2023-05-14T16:43:37.690Z,97684.00
2023-05-14T16:46:14.012Z,97682.00
2023-05-14T16:48:50.637Z,97687.00
2023-05-14T16:51:28.021Z,97682.00
2023-05-14T16:54:04.193Z,97686.00
2023-05-14T16:56:42.178Z,97689.00
2023-05-14T16:59:18.094Z,97690.00
2023-05-14T17:01:54.268Z,97684.00
2023-05-14T17:04:30.357Z,97691.00
2023-05-14T17:07:06.308Z,97690.00
2023-05-14T17:09:42.202Z,97688.00
2023-05-14T17:12:18.054Z,97688.00
2023-05-14T17:14:53.874Z,97690.00
2023-05-14T17:17:29.728Z,97686.00
2023-05-14T17:20:06.182Z,97693.00
2023-05-14T17:22:42.387Z,97691.00
2023-05-14T17:25:18.466Z,97687.00
2023-05-14T17:27:54.698Z,97691.00
2023-05-14T17:30:30.523Z,97690.00
2023-05-14T17:33:06.493Z,97697.00
2023-05-14T17:35:43.797Z,97694.00
2023-05-14T17:38:19.682Z,97695.00
2023-05-14T17:40:56.399Z,97701.00
2023-05-14T17:43:32.261Z,97704.00
2023-05-14T17:46:08.196Z,97700.00
2023-05-14T17:48:44.091Z,97699.00
2023-05-14T17:51:19.975Z,97706.00
2023-05-14T17:53:56.273Z,97700.00
2023-05-14T17:56:32.305Z,97703.00
2023-05-14T17:59:08.927Z,97699.00
2023-05-14T18:01:44.806Z,97699.00
2023-05-14T18:04:20.653Z,97697.00
2023-05-14T18:06:57.211Z,97694.00
2023-05-14T18:09:33.034Z,97700.00
2023-05-14T18:12:09.128Z,97706.00
2023-05-14T18:14:47.058Z,97696.00
2023-05-14T18:17:22.990Z,97705.00
2023-05-14T18:20:00.111Z,97705.00
2023-05-14T18:22:36.488Z,97709.00
2023-05-14T18:25:12.903Z,97711.00
2023-05-14T18:27:48.778Z,97713.00
2023-05-14T18:30:24.611Z,97710.00
2023-05-14T18:33:00.543Z,97711.00
2023-05-14T18:35:36.757Z,97714.00
2023-05-14T18:38:13.703Z,97718.00
2023-05-14T18:40:49.838Z,97712.00
2023-05-14T18:43:26.150Z,97718.00
2023-05-14T18:46:02.102Z,97712.00
2023-05-14T18:48:38.250Z,97722.00
2023-05-14T18:51:14.126Z,97715.00
2023-05-14T18:53:49.961Z,97716.00
2023-05-14T18:56:26.193Z,97719.00
2023-05-14T18:59:02.638Z,97713.00
2023-05-14T19:01:38.578Z,97713.00
2023-05-14T19:04:14.510Z,97720.00
2023-05-14T19:06:51.803Z,97721.00
2023-05-14T19:09:27.725Z,97713.00
2023-05-14T19:12:03.899Z,97714.00
2023-05-14T19:14:39.721Z,97715.00
2023-05-14T19:17:17.297Z,97731.00
2023-05-14T19:19:54.424Z,97726.00
2023-05-14T19:22:30.332Z,97736.00
2023-05-14T19:25:07.936Z,97736.00
2023-05-14T19:27:45.822Z,97732.00
2023-05-14T19:30:23.443Z,97731.00
2023-05-14T19:32:59.365Z,97743.00
2023-05-14T19:35:35.410Z,97738.00
2023-05-14T19:38:11.370Z,97741.00
2023-05-14T19:40:47.186Z,97746.00
2023-05-14T19:43:25.387Z,97746.00
2023-05-14T19:46:01.601Z,97753.00
2023-05-14T19:48:38.727Z,97746.00
2023-05-14T19:51:14.944Z,97752.00
2023-05-14T19:53:51.159Z,97746.00
2023-05-14T19:56:27.809Z,97747.00
2023-05-14T19:59:03.776Z,97746.00
2023-05-14T20:01:39.769Z,97744.00
2023-05-14T20:04:16.073Z,97741.00
2023-05-14T20:06:52.644Z,97745.00
2023-05-14T20:09:28.491Z,97740.00
2023-05-14T20:12:04.647Z,97748.00
2023-05-14T20:14:41.238Z,97748.00
2023-05-14T20:17:17.215Z,97749.00
2023-05-14T20:19:53.864Z,97741.00
2023-05-14T20:22:29.705Z,97740.00
2023-05-14T20:25:06.939Z,97740.00
2023-05-14T20:27:42.945Z,97743.00
2023-05-14T20:30:19.667Z,97741.00
2023-05-14T20:32:55.798Z,97743.00
2023-05-14T20:35:31.679Z,97735.00
2023-05-14T20:38:07.626Z,97742.00
2023-05-14T20:40:44.393Z,97739.00
2023-05-14T20:43:20.278Z,97741.00
2023-05-14T20:45:58.806Z,97732.00
2023-05-14T20:48:34.782Z,97737.00
2023-05-14T20:51:10.609Z,97732.00
2023-05-14T20:53:46.714Z,97722.00
2023-05-14T20:56:22.591Z,97719.00
2023-05-14T20:58:58.452Z,97716.00
2023-05-14T21:01:34.339Z,97721.00
2023-05-14T21:04:10.535Z,97726.00
2023-05-14T21:06:46.631Z,97728.00
2023-05-14T21:09:23.700Z,97728.00
2023-05-14T21:11:59.653Z,97731.00
2023-05-14T21:14:35.544Z,97728.00
2023-05-14T21:17:11.525Z,97737.00
2023-05-14T21:19:47.388Z,97732.00
2023-05-14T21:22:23.325Z,97723.00
2023-05-14T21:24:59.172Z,97732.00
2023-05-14T21:27:35.244Z,97731.00
2023-05-14T21:30:11.999Z,97730.00
2023-05-14T21:32:47.883Z,97727.00
2023-05-14T21:35:23.911Z,97732.00
2023-05-14T21:37:59.847Z,97729.00
2023-05-14T21:40:35.760Z,97738.00
2023-05-14T21:43:11.620Z,97723.00
2023-05-14T21:45:47.522Z,97723.00
2023-05-14T21:48:23.524Z,97723.00
2023-05-14T21:50:59.492Z,97720.00
2023-05-14T21:53:35.598Z,97720.00
2023-05-14T21:56:11.419Z,97718.00
2023-05-14T21:58:47.263Z,97713.00
2023-05-14T22:01:23.176Z,97716.00
2023-05-14T22:03:59.164Z,97715.00
2023-05-14T22:06:36.299Z,97708.00
2023-05-14T22:09:12.274Z,97715.00
2023-05-14T22:11:48.106Z,97708.00
2023-05-14T22:14:24.069Z,97713.00
2023-05-14T22:16:59.983Z,97709.00
2023-05-14T22:19:36.122Z,97712.00
2023-05-14T22:22:12.028Z,97709.00
2023-05-14T22:24:47.944Z,97707.00
2023-05-14T22:27:23.943Z,97701.00
2023-05-14T22:30:00.088Z,97703.00
2023-05-14T22:32:36.055Z,97705.00
2023-05-14T22:35:12.645Z,97705.00
2023-05-14T22:37:48.504Z,97705.00
2023-05-14T22:40:24.328Z,97706.00
2023-05-14T22:43:00.180Z,97701.00
2023-05-14T22:45:36.054Z,97698.00
2023-05-14T22:48:11.889Z,97699.00
2023-05-14T22:50:47.724Z,97693.00
2023-05-14T22:53:25.149Z,97702.00
2023-05-14T22:56:01.228Z,97691.00
2023-05-14T22:58:37.049Z,97690.00
2023-05-14T23:01:12.938Z,97692.00
2023-05-14T23:03:48.833Z,97689.00
2023-05-14T23:06:25.419Z,97691.00
2023-05-14T23:09:01.303Z,97683.00
2023-05-14T23:11:37.130Z,97688.00
2023-05-14T23:14:12.985Z,97686.00
2023-05-14T23:16:48.846Z,97686.00
2023-05-14T23:19:24.882Z,97685.00
2023-05-14T23:22:01.080Z,97687.00
2023-05-14T23:24:36.922Z,97681.00
2023-05-14T23:27:12.827Z,97690.00
2023-05-14T23:29:48.671Z,97682.00
2023-05-14T23:32:24.608Z,97679.00
2023-05-14T23:35:00.504Z,97673.00
2023-05-14T23:37:41.578Z,97673.00
2023-05-14T23:40:20.313Z,97674.00
2023-05-14T23:42:57.312Z,97679.00
2023-05-14T23:45:33.243Z,97674.00
2023-05-14T23:48:09.323Z,97678.00
2023-05-14T23:50:45.208Z,97670.00
2023-05-14T23:53:21.140Z,97666.00
2023-05-14T23:55:57.132Z,97663.00
2023-05-14T23:58:33.638Z,97661.00
